Terminal Aerodrome Forecast
Issued by NWS

Home | Current Version | Previous Version | Graphics & Text | Print | Product List | Glossary Off
Versions: 1 2 3 4 5 6 7 8 9 10 11 12 13 14 15 16 17

000
FTUS43 KGRB 250520
TAFMTW
TAF
KMTW 250520Z 2506/2606 19004KT P6SM SKC
      TEMPO 2506/2509 4SM BR
     FM250900 19004KT 5SM BR SKC
      TEMPO 2509/2513 1SM BR
     FM251400 18007KT P6SM SCT250
     FM251700 16009KT P6SM FEW050 SCT250
     FM260000 16004KT P6SM FEW050 BKN100=

USA.gov is the U.S. government's official web portal to all federal, state and local government web resources and services.